Time;durP1;ratioP1;P1;durP2;ratioP2;P2;SDS_P1;SDS_P2;PMS_P1;PMS_P2;Temp;Humidity;BMP_temperature;BMP_pressure;BME280_temperature;BME280_humidity;BME280_pressure;Samples;Min_cycle;Max_cycle;Signal;HPM_P1;HPM_P2
2024/03/10 00:01:32;;;;;;;16.63;13.35;;;;;;;11.81;65.40;99625.84;5271775;28;20119;-81
2024/03/10 00:04:04;;;;;;;15.88;13.60;;;;;;;11.71;67.68;99622.63;5278876;28;20040;-82
2024/03/10 00:06:36;;;;;;;17.33;14.07;;;;;;;11.76;65.42;99638.66;5301811;28;20145;-82
2024/03/10 00:09:08;;;;;;;16.90;13.50;;;;;;;11.72;67.08;99639.97;5300125;28;20046;-83
2024/03/10 00:11:42;;;;;;;19.45;14.35;;;;;;;11.70;66.12;99644.56;5303139;28;20118;-82
2024/03/10 00:14:14;;;;;;;17.23;13.55;;;;;;;11.58;65.88;99630.97;5292831;28;20070;-82
2024/03/10 00:16:45;;;;;;;16.33;13.45;;;;;;;11.61;65.04;99643.78;5280277;28;20032;-82
2024/03/10 00:19:17;;;;;;;16.70;13.75;;;;;;;11.64;65.70;99653.13;5285882;28;20032;-82
2024/03/10 00:21:49;;;;;;;19.75;14.32;;;;;;;11.60;66.43;99657.88;5288451;28;20670;-80
2024/03/10 00:24:21;;;;;;;17.63;14.13;;;;;;;11.63;66.19;99664.56;5285582;28;20024;-82
2024/03/10 00:26:53;;;;;;;18.60;13.82;;;;;;;11.60;63.65;99650.00;5282620;28;20650;-80
2024/03/10 00:29:25;;;;;;;17.50;14.32;;;;;;;11.54;64.23;99650.66;5287279;28;20036;-80
2024/03/10 00:31:57;;;;;;;17.63;13.98;;;;;;;11.55;64.84;99654.09;5283129;28;20031;-80
2024/03/10 00:34:29;;;;;;;16.17;13.40;;;;;;;11.55;64.61;99667.22;5260709;28;20497;-81
2024/03/10 00:37:02;;;;;;;17.17;13.40;;;;;;;11.52;67.11;99672.81;5283514;28;20363;-82
2024/03/10 00:39:34;;;;;;;15.50;12.80;;;;;;;11.52;64.21;99651.84;5280617;28;20036;-80
2024/03/10 00:42:06;;;;;;;17.52;12.48;;;;;;;11.43;68.97;99641.31;5285151;28;20046;-80
2024/03/10 00:44:38;;;;;;;16.75;13.35;;;;;;;11.26;67.15;99628.41;5283479;28;20050;-81
2024/03/10 00:47:11;;;;;;;17.10;13.73;;;;;;;11.27;65.90;99609.88;5284124;28;20047;-82
2024/03/10 00:49:43;;;;;;;17.03;13.60;;;;;;;11.17;65.74;99581.22;5289140;28;20425;-80
2024/03/10 00:52:15;;;;;;;17.50;13.10;;;;;;;11.17;68.24;99598.72;5306890;28;20364;-81
2024/03/10 00:54:47;;;;;;;17.02;13.77;;;;;;;11.21;67.42;99602.66;5305672;28;20030;-82
2024/03/10 00:57:19;;;;;;;20.90;13.93;;;;;;;11.12;68.93;99601.84;5294827;28;20023;-81
2024/03/10 00:59:51;;;;;;;17.27;13.77;;;;;;;10.97;67.28;99595.63;5292539;28;20028;-81
2024/03/10 01:02:23;;;;;;;18.27;14.75;;;;;;;11.02;68.73;99611.66;5291163;28;20038;-81
2024/03/10 01:04:55;;;;;;;18.40;13.73;;;;;;;11.00;68.64;99610.22;5292248;28;20059;-81
2024/03/10 01:07:27;;;;;;;15.02;12.95;;;;;;;10.93;68.01;99608.22;5288534;28;20024;-81
2024/03/10 01:10:01;;;;;;;17.55;13.75;;;;;;;10.95;68.63;99605.47;5292245;28;20039;-81
2024/03/10 01:12:33;;;;;;;17.10;13.07;;;;;;;10.88;69.78;99601.84;5290276;28;20040;-81
2024/03/10 01:15:05;;;;;;;16.98;13.35;;;;;;;10.95;68.75;99601.03;5291538;28;20043;-81
2024/03/10 01:17:37;;;;;;;18.48;13.10;;;;;;;10.90;68.92;99592.00;5294286;28;20032;-81
2024/03/10 01:20:10;;;;;;;16.38;12.90;;;;;;;10.83;69.72;99598.88;5290732;28;20016;-81
2024/03/10 01:22:42;;;;;;;16.02;13.05;;;;;;;10.87;70.51;99598.41;5294459;28;20465;-81
2024/03/10 01:25:14;;;;;;;17.35;13.73;;;;;;;10.84;68.67;99590.88;5293309;28;20488;-81
2024/03/10 01:27:46;;;;;;;19.92;13.23;;;;;;;10.80;70.41;99589.56;5292204;28;20042;-81
2024/03/10 01:30:20;;;;;;;17.42;13.32;;;;;;;10.83;68.60;99589.22;5289429;28;20027;-81
2024/03/10 01:32:52;;;;;;;16.92;13.38;;;;;;;10.83;69.13;99585.78;5293946;28;20028;-81
2024/03/10 01:35:24;;;;;;;15.52;12.43;;;;;;;10.79;70.11;99590.53;5292923;28;20030;-81
2024/03/10 01:37:56;;;;;;;15.63;12.95;;;;;;;10.68;68.21;99573.34;5293419;28;20028;-81
2024/03/10 01:40:28;;;;;;;16.85;12.93;;;;;;;10.73;73.01;99567.59;5287971;28;20043;-81
2024/03/10 01:43:00;;;;;;;15.90;12.55;;;;;;;10.71;71.34;99566.94;5289345;28;20036;-81
2024/03/10 01:45:32;;;;;;;17.30;13.38;;;;;;;10.63;71.15;99559.06;5275507;28;20033;-81
2024/03/10 01:48:04;;;;;;;15.90;12.65;;;;;;;10.61;71.05;99569.72;5283825;28;20693;-81
2024/03/10 01:50:36;;;;;;;15.87;13.40;;;;;;;10.66;70.36;99567.44;5286934;28;20037;-81
2024/03/10 01:53:09;;;;;;;17.23;12.82;;;;;;;10.61;70.52;99563.69;5284757;28;20031;-81
2024/03/10 01:55:41;;;;;;;16.33;12.65;;;;;;;10.61;72.99;99559.25;5267226;28;20043;-81
2024/03/10 01:58:15;;;;;;;14.85;12.40;;;;;;;10.54;74.95;99550.41;5283916;28;20029;-81
2024/03/10 02:00:47;;;;;;;14.80;12.30;;;;;;;10.53;71.95;99543.53;5271587;28;20971;-81
2024/03/10 02:03:20;;;;;;;16.80;12.15;;;;;;;10.53;72.08;99537.44;5259151;28;20028;-81
2024/03/10 02:05:52;;;;;;;15.23;12.85;;;;;;;10.52;72.62;99531.41;5284213;28;20037;-81
2024/03/10 02:08:26;;;;;;;14.90;12.25;;;;;;;10.52;70.99;99539.25;5264284;28;20036;-81
2024/03/10 02:10:58;;;;;;;15.65;12.68;;;;;;;10.46;72.29;99537.28;5282053;28;20035;-81
2024/03/10 02:13:29;;;;;;;15.52;12.40;;;;;;;10.46;71.35;99545.16;5276633;28;20029;-81
2024/03/10 02:16:06;;;;;;;14.35;11.95;;;;;;;10.49;75.62;99536.94;5287000;28;20036;-81
2024/03/10 02:18:38;;;;;;;16.55;13.00;;;;;;;10.45;71.91;99539.09;5283288;28;20040;-81
2024/03/10 02:21:11;;;;;;;16.13;12.95;;;;;;;10.41;72.92;99516.00;5288875;28;20023;-81
2024/03/10 02:23:49;;;;;;;15.15;11.98;;;;;;;10.51;72.61;99508.81;5284765;28;20028;-81
2024/03/10 02:26:28;;;;;;;15.43;12.05;;;;;;;10.38;73.25;99511.91;5283870;28;20028;-81
2024/03/10 02:29:49;;;;;;;15.65;13.05;;;;;;;10.34;74.56;99501.91;5269041;28;20051;-81
2024/03/10 02:49:01;;;;;;;19.52;12.38;;;;;;;10.31;71.14;99500.47;5280186;28;20457;-81
2024/03/10 02:51:35;;;;;;;14.90;12.02;;;;;;;10.29;72.70;99505.03;5281444;28;20043;-81
2024/03/10 02:54:07;;;;;;;16.75;12.43;;;;;;;10.27;72.97;99511.41;5279431;28;20379;-81
2024/03/10 02:56:39;;;;;;;15.45;12.23;;;;;;;10.23;72.18;99508.25;5281454;28;20099;-81
2024/03/10 02:59:11;;;;;;;14.60;12.23;;;;;;;10.23;72.08;99510.88;5284715;28;20027;-81
2024/03/10 03:01:43;;;;;;;15.27;12.18;;;;;;;10.22;74.50;99496.13;5288053;28;20028;-81
2024/03/10 03:04:15;;;;;;;18.10;12.75;;;;;;;10.17;71.10;99507.09;5286007;28;20649;-81
2024/03/10 03:06:47;;;;;;;16.60;12.32;;;;;;;10.20;71.54;99506.78;5290805;28;20034;-81
2024/03/10 03:09:23;;;;;;;15.45;11.75;;;;;;;10.14;71.14;99501.34;5287836;28;20344;-81
2024/03/10 03:11:56;;;;;;;13.40;11.38;;;;;;;10.07;72.48;99482.03;5289512;28;20470;-81
2024/03/10 03:14:27;;;;;;;14.57;11.48;;;;;;;10.17;70.13;99480.91;5288524;28;20036;-81
2024/03/10 03:16:59;;;;;;;15.38;11.77;;;;;;;10.10;73.31;99476.50;5279441;28;20032;-81
2024/03/10 03:19:36;;;;;;;15.73;11.40;;;;;;;10.06;70.91;99469.94;5286563;28;20031;-81
2024/03/10 03:22:08;;;;;;;15.75;12.10;;;;;;;10.10;69.30;99477.31;5287972;28;20040;-81
2024/03/10 03:24:39;;;;;;;16.30;12.20;;;;;;;9.99;69.69;99470.56;5287266;28;20035;-81
2024/03/10 03:27:11;;;;;;;14.55;11.15;;;;;;;10.09;71.06;99507.06;5277891;28;20035;-81
2024/03/10 03:29:43;;;;;;;15.65;11.93;;;;;;;9.97;70.93;99490.88;5289336;28;20495;-81
2024/03/10 03:32:15;;;;;;;14.20;11.43;;;;;;;10.05;69.09;99508.38;5288503;28;20392;-81
2024/03/10 03:34:47;;;;;;;16.25;12.38;;;;;;;10.06;70.71;99519.66;5290056;28;20043;-82
2024/03/10 03:37:19;;;;;;;15.90;12.27;;;;;;;10.05;71.41;99507.56;5307620;28;20031;-81
2024/03/10 03:39:51;;;;;;;13.52;11.18;;;;;;;9.94;75.41;99478.09;5304115;28;20028;-82
2024/03/10 03:42:23;;;;;;;14.73;11.75;;;;;;;9.96;71.03;99483.16;5304920;28;20032;-82
2024/03/10 03:44:55;;;;;;;15.88;11.75;;;;;;;10.03;70.36;99491.19;5303369;28;20120;-82
2024/03/10 03:47:27;;;;;;;15.13;12.10;;;;;;;10.04;69.52;99491.06;5304906;28;20097;-82
2024/03/10 03:49:59;;;;;;;14.77;11.45;;;;;;;9.97;71.09;99487.44;5300647;28;20103;-81
2024/03/10 03:52:31;;;;;;;14.73;12.50;;;;;;;10.06;70.26;99490.88;5305587;28;20031;-82
2024/03/10 03:55:03;;;;;;;14.00;11.70;;;;;;;10.03;69.36;99484.16;5306156;28;20087;-83
2024/03/10 03:57:35;;;;;;;15.35;12.52;;;;;;;10.05;70.39;99489.25;5304173;28;20035;-82
2024/03/10 04:00:12;;;;;;;15.30;12.98;;;;;;;10.03;70.42;99483.34;5304002;28;20020;-80
2024/03/10 04:02:46;;;;;;;14.90;12.13;;;;;;;9.96;70.26;99491.84;5286631;28;20048;-82
2024/03/10 04:05:18;;;;;;;15.50;11.38;;;;;;;9.98;71.88;99486.44;5303204;28;20501;-82
2024/03/10 04:07:50;;;;;;;14.55;11.68;;;;;;;9.93;71.36;99478.25;5302536;28;20030;-81
2024/03/10 04:10:22;;;;;;;15.40;12.32;;;;;;;9.92;70.80;99484.44;5304061;28;20312;-81
2024/03/10 04:12:54;;;;;;;14.25;12.07;;;;;;;9.85;71.58;99479.06;5303296;28;20527;-82
2024/03/10 04:15:26;;;;;;;15.73;12.63;;;;;;;9.88;71.13;99478.72;5303647;28;20038;-82
2024/03/10 04:17:58;;;;;;;15.35;12.73;;;;;;;9.86;71.15;99475.47;5302616;28;20115;-81
2024/03/10 04:20:34;;;;;;;15.53;12.63;;;;;;;9.88;72.62;99468.25;5289026;28;20500;-81
2024/03/10 04:23:06;;;;;;;14.20;11.95;;;;;;;9.74;71.84;99464.47;5287280;28;20023;-81
2024/03/10 04:25:38;;;;;;;15.43;12.40;;;;;;;9.78;72.13;99470.19;5286152;28;20475;-81
2024/03/10 04:28:10;;;;;;;17.52;12.20;;;;;;;9.74;72.85;99461.03;5287348;28;20404;-81
2024/03/10 04:30:42;;;;;;;17.40;13.23;;;;;;;9.62;75.85;99446.59;5288905;28;20036;-81
2024/03/10 04:33:15;;;;;;;15.27;12.85;;;;;;;9.73;73.87;99462.00;5289633;28;20042;-81
2024/03/10 04:35:47;;;;;;;16.15;12.88;;;;;;;9.73;73.38;99456.75;5290262;28;20527;-81
2024/03/10 04:38:19;;;;;;;17.02;13.25;;;;;;;9.70;74.43;99457.91;5293293;28;20708;-81
2024/03/10 04:40:51;;;;;;;15.85;12.80;;;;;;;9.61;74.46;99450.19;5293216;28;20027;-81
2024/03/10 04:43:23;;;;;;;16.42;13.38;;;;;;;9.64;76.84;99455.94;5289640;28;20043;-80
2024/03/10 04:45:55;;;;;;;17.75;13.68;;;;;;;9.57;76.59;99446.25;5285225;28;20396;-80
2024/03/10 04:48:27;;;;;;;18.08;13.07;;;;;;;9.50;77.87;99446.88;5284210;28;20031;-80
2024/03/10 04:50:59;;;;;;;17.80;14.07;;;;;;;9.48;79.98;99445.41;5285518;28;20040;-81
2024/03/10 04:53:32;;;;;;;17.00;13.30;;;;;;;9.53;77.35;99453.59;5284555;28;20048;-81
2024/03/10 04:56:04;;;;;;;17.58;13.82;;;;;;;9.44;77.37;99439.69;5283500;28;20033;-81
2024/03/10 04:58:36;;;;;;;16.63;14.18;;;;;;;9.43;77.81;99445.03;5284706;28;20036;-81
2024/03/10 05:01:13;;;;;;;15.77;13.50;;;;;;;9.39;81.14;99439.31;5282177;28;20033;-81
2024/03/10 05:03:46;;;;;;;17.98;14.20;;;;;;;9.25;79.15;99424.25;5281327;28;20028;-81
2024/03/10 05:06:17;;;;;;;16.50;13.93;;;;;;;9.36;80.80;99433.59;5284040;28;20039;-80
2024/03/10 05:08:49;;;;;;;15.80;13.85;;;;;;;9.32;79.32;99427.88;5282470;28;20036;-81
2024/03/10 05:11:21;;;;;;;17.25;14.50;;;;;;;9.20;80.12;99413.41;5282385;28;20470;-80
2024/03/10 05:13:53;;;;;;;16.65;14.02;;;;;;;9.25;78.96;99432.09;5266510;28;20757;-81
2024/03/10 05:16:26;;;;;;;17.42;13.85;;;;;;;9.21;80.04;99438.59;5284637;28;20028;-81
2024/03/10 05:18:58;;;;;;;17.42;14.43;;;;;;;9.25;79.65;99435.50;5282722;28;20043;-80
2024/03/10 05:21:30;;;;;;;15.80;13.48;;;;;;;9.18;81.44;99431.06;5281466;28;20474;-80
2024/03/10 05:24:02;;;;;;;16.23;13.27;;;;;;;9.19;79.94;99430.91;5277654;28;20032;-80
2024/03/10 05:26:34;;;;;;;18.27;13.88;;;;;;;9.22;82.35;99437.63;5281107;28;20294;-80
2024/03/10 05:29:05;;;;;;;20.15;13.90;;;;;;;9.02;81.59;99398.66;5281838;28;20760;-81
2024/03/10 05:31:37;;;;;;;18.48;14.60;;;;;;;9.16;81.50;99420.75;5268325;28;20409;-80
2024/03/10 05:34:10;;;;;;;17.05;13.50;;;;;;;9.15;80.89;99421.72;5272045;28;20036;-79
2024/03/10 05:36:43;;;;;;;16.73;13.95;;;;;;;9.18;80.60;99431.06;5285791;28;20032;-79
2024/03/10 05:39:14;;;;;;;17.08;14.10;;;;;;;9.13;81.60;99430.69;5283099;28;20047;-79
2024/03/10 05:41:46;;;;;;;16.60;14.00;;;;;;;9.07;82.04;99442.59;5285622;28;20032;-79
2024/03/10 05:44:18;;;;;;;17.38;14.02;;;;;;;9.06;84.28;99443.56;5287022;28;20265;-80
2024/03/10 05:46:50;;;;;;;15.65;13.57;;;;;;;8.97;82.59;99429.63;5286231;28;20031;-80
2024/03/10 05:49:22;;;;;;;16.98;14.25;;;;;;;8.95;85.30;99428.97;5288178;28;20038;-80
2024/03/10 05:51:54;;;;;;;18.05;14.63;;;;;;;8.94;83.39;99429.97;5284562;28;20067;-80
2024/03/10 05:54:26;;;;;;;17.40;13.23;;;;;;;8.90;85.01;99410.34;5276026;28;20371;-80
2024/03/10 05:56:59;;;;;;;17.33;14.27;;;;;;;8.94;84.54;99419.50;5286877;28;20032;-80
2024/03/10 05:59:31;;;;;;;16.23;13.70;;;;;;;8.93;85.27;99436.13;5285533;28;20044;-79
2024/03/10 06:02:03;;;;;;;15.27;13.50;;;;;;;8.92;85.81;99431.91;5288769;28;20613;-79
2024/03/10 06:04:35;;;;;;;16.52;14.05;;;;;;;8.95;85.36;99430.78;5285985;28;20048;-80
2024/03/10 06:07:07;;;;;;;18.42;14.57;;;;;;;8.86;84.81;99434.28;5288514;28;20028;-80
2024/03/10 06:09:39;;;;;;;17.63;15.30;;;;;;;8.87;84.64;99433.34;5289524;28;20036;-80
2024/03/10 06:12:12;;;;;;;17.08;14.38;;;;;;;8.81;84.38;99437.38;5288548;28;20031;-79
2024/03/10 06:14:43;;;;;;;17.85;14.52;;;;;;;8.81;85.96;99442.59;5289815;28;20046;-80
2024/03/10 06:17:16;;;;;;;18.30;14.02;;;;;;;8.82;85.42;99441.63;5289288;28;20032;-79
2024/03/10 06:25:29;;;;;;;17.17;14.50;;;;;;;8.75;86.91;99438.81;5291141;28;20035;-79
2024/03/10 06:28:01;;;;;;;18.23;14.50;;;;;;;8.73;88.82;99445.16;5289455;28;20036;-79
2024/03/10 06:30:35;;;;;;;18.70;14.52;;;;;;;8.72;88.89;99440.91;5287552;28;20482;-80
2024/03/10 06:33:07;;;;;;;;;;;;;;;9.36;82.84;99438.84;5290360;28;20496;-80
2024/03/10 06:35:38;;;;;;;17.95;14.32;;;;;;;8.78;85.95;99427.22;5285577;28;19927;-80
2024/03/10 06:38:11;;;;;;;19.33;14.68;;;;;;;8.77;86.77;99428.22;5286539;28;20405;-80
2024/03/10 06:40:44;;;;;;;18.60;14.30;;;;;;;8.72;89.24;99428.69;5268788;28;20050;-80
2024/03/10 06:43:16;;;;;;;20.10;14.43;;;;;;;8.81;87.00;99444.41;5286485;28;20432;-80
2024/03/10 06:45:48;;;;;;;18.55;14.23;;;;;;;8.82;88.18;99432.97;5285709;28;20032;-80
2024/03/10 06:48:21;;;;;;;19.45;14.50;;;;;;;8.84;86.37;99434.47;5284519;28;20328;-80
2024/03/10 06:50:54;;;;;;;17.67;14.30;;;;;;;8.89;86.75;99434.81;5286868;28;20043;-80
2024/03/10 06:53:26;;;;;;;19.23;14.45;;;;;;;8.93;86.29;99443.16;5288217;28;20025;-80
2024/03/10 06:55:58;;;;;;;17.38;13.38;;;;;;;8.92;85.43;99442.34;5289334;28;20066;-79
2024/03/10 06:58:30;;;;;;;15.68;13.82;;;;;;;8.93;88.27;99438.75;5285210;28;20036;-80
2024/03/10 07:01:03;;;;;;;17.80;13.57;;;;;;;8.94;85.20;99431.72;5287797;28;20047;-80
2024/03/10 07:03:35;;;;;;;20.40;15.18;;;;;;;9.07;84.76;99437.38;5288038;28;20040;-80
2024/03/10 07:06:07;;;;;;;15.73;13.25;;;;;;;9.00;87.29;99434.56;5287620;28;20051;-80
2024/03/10 07:08:39;;;;;;;16.13;13.77;;;;;;;9.04;86.79;99442.09;5282378;28;20032;-79
2024/03/10 07:11:11;;;;;;;16.83;13.63;;;;;;;9.04;85.40;99436.84;5287219;28;20032;-79
2024/03/10 07:13:43;;;;;;;16.60;13.82;;;;;;;9.07;86.18;99437.38;5288518;28;20372;-79
2024/03/10 07:16:15;;;;;;;17.13;14.27;;;;;;;9.08;85.39;99439.00;5287028;28;20040;-80
2024/03/10 07:18:47;;;;;;;17.17;13.65;;;;;;;9.16;83.92;99440.84;5288066;28;20139;-80
2024/03/10 07:21:19;;;;;;;16.35;13.93;;;;;;;9.19;86.47;99445.75;5285439;28;20495;-80
2024/03/10 07:23:51;;;;;;;17.33;14.50;;;;;;;9.19;86.64;99436.13;5286537;28;20035;-80
2024/03/10 07:26:23;;;;;;;18.50;14.88;;;;;;;9.25;82.43;99442.53;5286476;28;20035;-80
2024/03/10 07:28:55;;;;;;;17.45;14.23;;;;;;;9.26;83.92;99428.50;5286494;28;20036;-80
2024/03/10 07:31:27;;;;;;;16.55;13.35;;;;;;;9.27;87.20;99428.31;5283738;28;20156;-80
2024/03/10 07:33:59;;;;;;;17.83;14.55;;;;;;;9.24;83.98;99420.81;5287397;28;20477;-80
2024/03/10 07:36:31;;;;;;;16.23;14.23;;;;;;;9.30;83.46;99431.59;5285594;28;20879;-79
2024/03/10 07:39:06;;;;;;;14.98;13.38;;;;;;;9.38;82.35;99429.03;5263613;28;20043;-80
2024/03/10 07:41:38;;;;;;;17.63;13.82;;;;;;;9.31;82.52;99428.00;5254798;28;20043;-80
2024/03/10 07:44:09;;;;;;;15.43;12.80;;;;;;;9.28;81.48;99418.72;5267070;28;20058;-80
2024/03/10 07:46:42;;;;;;;19.02;13.02;;;;;;;9.44;80.61;99439.69;5284521;28;20036;-79
2024/03/10 07:49:14;;;;;;;16.92;13.55;;;;;;;9.48;81.20;99453.25;5288909;28;20039;-79
2024/03/10 07:51:46;;;;;;;18.13;14.25;;;;;;;9.44;82.99;99449.31;5274463;28;20236;-80
2024/03/10 07:54:18;;;;;;;14.82;12.90;;;;;;;9.46;79.55;99437.72;5284678;28;20389;-81
2024/03/10 07:56:50;;;;;;;15.02;12.85;;;;;;;9.54;80.21;99449.19;5287905;28;20054;-81
2024/03/10 07:59:22;;;;;;;14.45;12.70;;;;;;;9.62;79.63;99457.91;5283141;28;20020;-81
2024/03/10 08:01:54;;;;;;;16.02;12.95;;;;;;;9.68;78.57;99461.66;5279028;28;20575;-81
2024/03/10 08:04:26;;;;;;;14.93;11.88;;;;;;;9.75;79.99;99462.66;5288429;28;20040;-81
2024/03/10 08:06:58;;;;;;;13.95;12.50;;;;;;;9.75;76.50;99450.41;5288595;28;20089;-81
2024/03/10 08:09:31;;;;;;;13.57;11.43;;;;;;;9.81;74.08;99445.50;5284777;28;20039;-81
2024/03/10 08:12:04;;;;;;;13.90;11.73;;;;;;;9.95;75.57;99463.22;5286729;28;20280;-81
2024/03/10 08:14:38;;;;;;;14.90;11.88;;;;;;;9.99;73.12;99459.28;5287690;28;20039;-80
2024/03/10 08:17:09;;;;;;;13.98;11.70;;;;;;;10.02;72.55;99452.94;5276013;28;20323;-80
2024/03/10 08:19:42;;;;;;;17.10;11.95;;;;;;;10.01;72.38;99440.84;5283131;28;20043;-80
2024/03/10 08:22:14;;;;;;;12.97;11.50;;;;;;;10.13;70.98;99450.00;5283037;28;20039;-81
2024/03/10 08:24:46;;;;;;;13.48;11.25;;;;;;;10.04;70.34;99440.50;5284432;28;20049;-80
2024/03/10 08:27:18;;;;;;;14.38;11.88;;;;;;;10.06;70.31;99439.34;5281094;28;20042;-81
2024/03/10 08:29:50;;;;;;;14.38;12.18;;;;;;;10.11;70.58;99460.63;5286059;28;20050;-81
2024/03/10 08:32:23;;;;;;;13.90;11.48;;;;;;;10.10;70.10;99460.78;5281313;28;20091;-81
2024/03/10 08:34:56;;;;;;;14.82;12.23;;;;;;;10.16;71.94;99465.41;5276809;28;20472;-80
2024/03/10 08:37:28;;;;;;;15.13;12.57;;;;;;;10.24;71.98;99462.78;5277465;28;20034;-80
2024/03/10 08:40:00;;;;;;;13.05;11.02;;;;;;;10.24;70.71;99458.38;5280594;28;20233;-81
2024/03/10 08:42:33;;;;;;;15.25;12.00;;;;;;;10.27;71.63;99461.69;5281192;28;20028;-81
2024/03/10 08:45:10;;;;;;;13.50;11.38;;;;;;;10.27;69.42;99453.81;5275485;28;20833;-81
2024/03/10 08:47:45;;;;;;;15.27;11.45;;;;;;;10.26;70.65;99439.91;5285630;28;20028;-80
2024/03/10 08:50:17;;;;;;;13.93;11.27;;;;;;;10.31;69.27;99445.47;5278897;28;20032;-81
2024/03/10 08:52:49;;;;;;;14.45;11.60;;;;;;;10.36;70.60;99439.75;5286223;28;20043;-81
2024/03/10 08:55:21;;;;;;;14.77;11.57;;;;;;;10.42;68.38;99441.72;5285811;28;20428;-81
2024/03/10 08:57:53;;;;;;;13.73;10.63;;;;;;;10.47;70.19;99452.53;5284402;28;20038;-79
2024/03/10 09:00:25;;;;;;;13.90;11.40;;;;;;;10.54;68.44;99447.47;5284136;28;20039;-82
2024/03/10 09:02:57;;;;;;;17.35;11.48;;;;;;;10.68;68.59;99465.94;5286130;28;20370;-81
2024/03/10 09:05:29;;;;;;;15.23;11.40;;;;;;;10.75;69.45;99467.91;5284930;28;20086;-81
2024/03/10 09:08:01;;;;;;;12.30;10.57;;;;;;;10.78;67.45;99452.66;5283362;28;20040;-81
2024/03/10 09:10:33;;;;;;;13.90;11.30;;;;;;;10.87;69.22;99453.47;5288054;28;20386;-81
2024/03/10 09:13:05;;;;;;;14.40;11.23;;;;;;;10.96;67.60;99462.97;5270918;28;20025;-81
2024/03/10 09:15:37;;;;;;;13.20;10.38;;;;;;;11.04;66.67;99462.13;5287256;28;20038;-81
2024/03/10 09:18:09;;;;;;;12.23;10.43;;;;;;;11.09;66.68;99447.53;5288373;28;20036;-81
2024/03/10 09:20:43;;;;;;;15.07;11.48;;;;;;;11.17;64.98;99451.94;5279499;28;20285;-81
2024/03/10 09:23:15;;;;;;;;;;;;;;;11.89;65.26;99462.34;5272059;28;20051;-81
2024/03/10 09:25:48;;;;;;;12.75;11.07;;;;;;;11.45;65.83;99471.53;5291881;28;19916;-82
2024/03/10 09:28:21;;;;;;;13.55;11.27;;;;;;;11.40;64.13;99465.97;5285202;28;20397;-82
2024/03/10 09:30:55;;;;;;;14.35;11.23;;;;;;;11.58;65.05;99478.84;5289921;28;20568;-81
2024/03/10 09:33:27;;;;;;;13.43;10.82;;;;;;;11.64;62.97;99477.34;5287196;28;20043;-80
2024/03/10 09:35:59;;;;;;;12.45;11.02;;;;;;;11.69;64.96;99464.53;5286541;28;20216;-80
2024/03/10 09:38:31;;;;;;;13.75;11.25;;;;;;;11.72;62.92;99463.38;5281665;28;20048;-80
2024/03/10 09:41:05;;;;;;;11.90;10.40;;;;;;;11.84;63.57;99460.22;5286104;28;20047;-80
2024/03/10 09:43:38;;;;;;;13.02;11.15;;;;;;;11.85;62.61;99448.72;5281590;28;20708;-80
2024/03/10 09:46:13;;;;;;;12.25;10.82;;;;;;;11.94;62.05;99444.28;5284922;28;20623;-81
2024/03/10 09:48:45;;;;;;;14.60;11.30;;;;;;;11.99;60.91;99446.38;5280863;28;20032;-81
2024/03/10 09:51:17;;;;;;;14.45;11.68;;;;;;;12.07;62.42;99448.94;5289158;28;20034;-80
2024/03/10 09:53:50;;;;;;;14.27;10.98;;;;;;;12.12;63.38;99436.94;5288251;28;20037;-80
2024/03/10 09:56:23;;;;;;;13.38;10.55;;;;;;;12.22;62.68;99428.00;5283823;28;20512;-81
2024/03/10 09:59:03;;;;;;;12.30;10.60;;;;;;;12.34;63.89;99437.91;5283822;28;20541;-81
2024/03/10 10:01:36;;;;;;;15.70;10.98;;;;;;;12.30;60.20;99441.06;5282510;28;20496;-80
2024/03/10 10:04:10;;;;;;;13.63;10.93;;;;;;;12.46;62.56;99445.38;5288231;28;20055;-80
2024/03/10 10:06:45;;;;;;;14.27;11.10;;;;;;;12.55;61.19;99449.59;5286000;28;20532;-81
2024/03/10 10:09:17;;;;;;;12.70;10.43;;;;;;;12.61;59.54;99447.09;5278379;28;20339;-80
2024/03/10 10:11:49;;;;;;;15.40;11.43;;;;;;;12.71;60.72;99438.94;5286401;28;20039;-83
2024/03/10 10:14:23;;;;;;;13.60;11.00;;;;;;;12.77;59.30;99442.66;5277228;28;20806;-80
2024/03/10 10:17:00;;;;;;;11.82;10.63;;;;;;;12.85;60.54;99425.00;5283999;28;20043;-81
2024/03/10 10:19:32;;;;;;;11.93;10.02;;;;;;;12.90;58.55;99421.84;5277853;28;20047;-81
2024/03/10 10:22:06;;;;;;;13.05;11.00;;;;;;;13.02;59.04;99440.59;5282233;28;20059;-81
2024/03/10 10:24:38;;;;;;;11.98;10.68;;;;;;;12.96;60.90;99438.72;5278655;28;20027;-81
2024/03/10 10:27:10;;;;;;;14.55;11.07;;;;;;;13.10;61.00;99438.69;5269387;28;20073;-81
2024/03/10 10:29:50;;;;;;;12.38;10.85;;;;;;;13.27;59.99;99431.50;5287226;28;20040;-81
2024/03/10 10:32:23;;;;;;;11.80;10.48;;;;;;;13.18;58.47;99436.97;5284543;28;20424;-81
2024/03/10 10:34:56;;;;;;;;;;;;;;;13.92;57.76;99447.44;5281296;28;20604;-81
2024/03/10 10:37:34;;;;;;;13.57;11.15;;;;;;;13.42;57.17;99446.47;5283009;28;20341;-81
2024/03/10 10:40:11;;;;;;;12.88;11.35;;;;;;;13.45;56.91;99438.16;5285038;28;20043;-81
2024/03/10 10:42:43;;;;;;;11.75;10.30;;;;;;;13.51;57.08;99440.91;5276748;28;20028;-81
2024/03/10 10:45:16;;;;;;;12.35;9.95;;;;;;;13.63;56.44;99451.75;5278614;28;20082;-81
2024/03/10 10:47:50;;;;;;;;;;;;;;;14.35;57.23;99457.00;5281468;28;20047;-81
2024/03/10 10:50:31;;;;;;;12.80;10.35;;;;;;;13.83;54.97;99463.38;5281369;28;19920;-81
2024/03/10 10:53:07;;;;;;;12.57;10.52;;;;;;;13.83;54.99;99454.66;5285671;28;21345;-81
2024/03/10 10:55:39;;;;;;;11.25;10.05;;;;;;;13.81;54.69;99444.28;5284181;28;20036;-81
2024/03/10 10:58:15;;;;;;;11.30;9.95;;;;;;;13.88;53.93;99453.09;5260930;28;20505;-81
2024/03/10 11:00:52;;;;;;;11.77;10.50;;;;;;;13.82;53.69;99455.63;5278754;28;20505;-81
2024/03/10 11:03:26;;;;;;;11.45;10.25;;;;;;;13.77;53.80;99445.66;5281900;28;20024;-81
2024/03/10 11:06:01;;;;;;;11.82;10.07;;;;;;;13.94;56.46;99463.88;5281091;28;20250;-81
2024/03/10 11:08:40;;;;;;;13.75;10.25;;;;;;;14.04;54.87;99456.50;5285744;28;20040;-81
2024/03/10 11:11:16;;;;;;;11.50;9.38;;;;;;;14.11;54.97;99446.84;5269737;28;20521;-81
2024/03/10 11:13:48;;;;;;;12.90;10.20;;;;;;;14.18;53.33;99450.38;5280635;28;20032;-81
2024/03/10 11:16:26;;;;;;;10.63;9.10;;;;;;;14.26;53.13;99439.69;5270138;28;20025;-81
2024/03/10 11:19:16;;;;;;;12.98;10.18;;;;;;;14.47;52.92;99456.50;5281076;28;20402;-81
2024/03/10 11:21:50;;;;;;;11.00;9.80;;;;;;;14.26;52.50;99460.78;5284105;28;20717;-81
2024/03/10 11:24:25;;;;;;;10.77;9.65;;;;;;;14.28;52.04;99447.41;5284445;28;20524;-81
2024/03/10 11:27:20;;;;;;;11.65;10.23;;;;;;;14.59;52.20;99447.13;5282876;28;20040;-81
2024/03/10 11:29:52;;;;;;;11.48;9.50;;;;;;;14.47;51.18;99451.22;5279939;28;20390;-81
2024/03/10 11:33:18;;;;;;;11.95;10.60;;;;;;;14.84;52.01;99436.97;5287557;28;20047;-80
2024/03/10 11:36:39;;;;;;;10.60;9.35;;;;;;;14.95;51.73;99433.78;5231636;28;20052;-80
2024/03/10 11:39:19;;;;;;;11.87;10.33;;;;;;;14.88;50.75;99438.19;5220890;28;20060;-80
2024/03/10 11:42:16;;;;;;;12.90;9.70;;;;;;;15.18;51.83;99433.53;5224430;28;20058;-80
2024/03/10 11:44:52;;;;;;;11.07;9.67;;;;;;;14.74;51.04;99387.22;5221439;28;20042;-80
2024/03/10 11:47:25;;;;;;;12.70;10.10;;;;;;;15.12;50.71;99422.94;5223043;28;20045;-80
2024/03/10 11:49:58;;;;;;;10.15;8.85;;;;;;;14.94;50.07;99400.53;5209860;28;20049;-80
2024/03/10 11:52:32;;;;;;;12.45;9.75;;;;;;;15.12;51.26;99431.69;5218092;28;20398;-80
2024/03/10 11:55:10;;;;;;;11.57;10.07;;;;;;;14.96;51.18;99402.94;5267387;28;20048;-80
2024/03/10 11:57:44;;;;;;;10.85;9.55;;;;;;;15.15;49.60;99436.53;5278111;28;20024;-81
2024/03/10 12:00:27;;;;;;;9.75;8.75;;;;;;;15.12;49.99;99422.94;5290142;28;20044;-80
2024/03/10 12:03:01;;;;;;;10.50;8.88;;;;;;;15.17;48.34;99431.09;5288094;28;20020;-80
2024/03/10 12:05:33;;;;;;;10.90;9.23;;;;;;;14.87;49.82;99399.66;5284744;28;20055;-80
2024/03/10 12:08:08;;;;;;;11.90;9.37;;;;;;;15.23;48.56;99417.94;5285170;28;20034;-80
2024/03/10 12:10:40;;;;;;;12.40;9.40;;;;;;;15.04;50.56;99400.19;5307319;28;20024;-80
2024/03/10 12:13:19;;;;;;;11.02;9.60;;;;;;;15.20;49.89;99399.84;5306314;28;20044;-80